Time;durP1;ratioP1;P1;durP2;ratioP2;P2;SDS_P1;SDS_P2;PMS_P1;PMS_P2;Temp;Humidity;BMP_temperature;BMP_pressure;BME280_temperature;BME280_humidity;BME280_pressure;Samples;Min_cycle;Max_cycle;Signal;HPM_P1;HPM_P2
2022/07/13 00:01:11;;;;;;;823.90;766.83;;;16.60;18.60;;;;;;5010561;28;20175;-66
2022/07/13 00:03:36;;;;;;;961.10;894.30;;;16.50;18.50;;;;;;5011761;28;20182;-66
2022/07/13 00:06:02;;;;;;;539.00;513.37;;;16.50;18.50;;;;;;5011790;28;20648;-66
2022/07/13 00:08:28;;;;;;;567.77;538.17;;;16.50;18.50;;;;;;5011312;28;20195;-66
2022/07/13 00:10:53;;;;;;;582.73;550.90;;;16.50;18.50;;;;;;5011756;28;20468;-67
2022/07/13 00:13:19;;;;;;;606.80;571.47;;;16.50;18.50;;;;;;5011717;28;20632;-66
2022/07/13 00:15:45;;;;;;;808.10;756.30;;;16.40;18.50;;;;;;5011545;28;20669;-66
2022/07/13 00:18:10;;;;;;;949.17;878.70;;;16.40;18.80;;;;;;5010956;28;20645;-66
2022/07/13 00:20:36;;;;;;;716.97;675.00;;;16.40;19.10;;;;;;5010685;28;20284;-67
2022/07/13 00:23:01;;;;;;;875.37;817.13;;;16.30;19.00;;;;;;5011771;28;20266;-68
2022/07/13 00:25:27;;;;;;;687.60;646.30;;;16.30;19.40;;;;;;5015399;28;20531;-66
2022/07/13 00:27:53;;;;;;;1013.87;937.90;;;16.20;19.30;;;;;;5015389;28;20195;-67
2022/07/13 00:30:19;;;;;;;726.30;678.50;;;16.30;19.40;;;;;;5013728;28;20272;-67
2022/07/13 00:32:44;;;;;;;654.30;613.20;;;16.20;19.40;;;;;;5015133;28;20508;-67
2022/07/13 00:35:10;;;;;;;921.13;852.20;;;16.20;19.60;;;;;;5015059;28;20201;-66
2022/07/13 00:37:35;;;;;;;662.33;623.03;;;16.10;19.90;;;;;;5015123;28;20218;-66
2022/07/13 00:40:01;;;;;;;800.43;749.20;;;16.10;19.70;;;;;;5014734;28;20688;-67
2022/07/13 00:42:26;;;;;;;546.63;518.83;;;16.10;20.10;;;;;;5015221;28;20175;-67
2022/07/13 00:44:52;;;;;;;588.33;555.57;;;16.10;19.70;;;;;;5014763;28;20176;-66
2022/07/13 00:47:17;;;;;;;1012.77;941.67;;;16.00;19.70;;;;;;5015046;28;20183;-66
2022/07/13 00:49:43;;;;;;;686.87;641.87;;;16.10;19.90;;;;;;5013194;28;20648;-68
2022/07/13 00:52:10;;;;;;;792.07;743.50;;;16.00;19.80;;;;;;5014886;28;20707;-67
2022/07/13 00:54:37;;;;;;;664.37;623.67;;;15.90;19.90;;;;;;5013932;28;20175;-67
2022/07/13 00:57:06;;;;;;;773.40;721.00;;;15.90;20.30;;;;;;5012880;28;20421;-68
2022/07/13 00:59:34;;;;;;;495.43;470.10;;;15.90;20.20;;;;;;5013976;28;20494;-66
2022/07/13 01:02:00;;;;;;;736.67;691.00;;;15.80;20.10;;;;;;5014706;28;20469;-66
2022/07/13 01:04:25;;;;;;;385.70;368.30;;;15.80;20.70;;;;;;5014258;28;20434;-67
2022/07/13 01:06:56;;;;;;;871.30;813.23;;;15.70;20.90;;;;;;5013241;28;20180;-68
2022/07/13 01:09:22;;;;;;;947.73;882.30;;;15.60;21.90;;;;;;5014172;28;20220;-67
2022/07/13 01:11:48;;;;;;;757.30;707.47;;;15.60;21.20;;;;;;5014653;28;20919;-67
2022/07/13 01:14:15;;;;;;;834.97;780.43;;;15.70;21.10;;;;;;5014454;28;20790;-67
2022/07/13 01:16:41;;;;;;;590.27;552.93;;;15.70;21.30;;;;;;5013583;28;20504;-67
2022/07/13 01:19:10;;;;;;;361.03;343.43;;;15.60;21.30;;;;;;5014190;28;21050;-67
2022/07/13 01:21:42;;;;;;;447.67;424.67;;;15.50;21.30;;;;;;5014788;28;20181;-67
2022/07/13 01:24:08;;;;;;;570.77;538.37;;;15.40;22.00;;;;;;5014491;28;20432;-66
2022/07/13 01:26:34;;;;;;;976.33;907.90;;;15.30;22.00;;;;;;5014400;28;20773;-66
2022/07/13 01:29:00;;;;;;;512.20;483.60;;;15.30;22.00;;;;;;5013833;28;20445;-67
2022/07/13 01:31:36;;;;;;;542.90;512.50;;;15.30;22.00;;;;;;5012908;28;20555;-67
2022/07/13 01:34:03;;;;;;;480.70;454.47;;;15.30;22.60;;;;;;5013610;28;20194;-68
2022/07/13 01:36:29;;;;;;;437.00;413.13;;;15.20;21.90;;;;;;5013153;28;20951;-67
2022/07/13 01:38:56;;;;;;;622.83;580.83;;;15.20;22.90;;;;;;5013709;28;20988;-67
2022/07/13 01:41:22;;;;;;;407.87;388.20;;;15.10;22.40;;;;;;5014158;28;20417;-67
2022/07/13 01:43:49;;;;;;;728.73;681.90;;;15.10;22.30;;;;;;5014132;28;20924;-66
2022/07/13 01:46:15;;;;;;;886.30;824.60;;;15.00;22.60;;;;;;5013952;28;20420;-67
2022/07/13 01:48:41;;;;;;;473.70;446.73;;;15.00;22.80;;;;;;5011980;28;20523;-66
2022/07/13 01:51:06;;;;;;;924.63;859.30;;;15.10;22.40;;;;;;5013991;28;20492;-67
2022/07/13 01:53:32;;;;;;;595.50;557.73;;;15.10;22.40;;;;;;5013641;28;20654;-67
2022/07/13 01:55:57;;;;;;;831.70;776.00;;;15.00;22.30;;;;;;5013773;28;20257;-66
2022/07/13 01:58:23;;;;;;;841.33;785.37;;;14.90;22.50;;;;;;5013308;28;20198;-67
2022/07/13 02:00:48;;;;;;;595.80;559.33;;;14.90;22.60;;;;;;5013578;28;20211;-67
2022/07/13 02:03:14;;;;;;;537.57;507.27;;;15.00;21.90;;;;;;5013515;28;20544;-67
2022/07/13 02:05:39;;;;;;;838.13;780.73;;;15.00;22.10;;;;;;5013591;28;20185;-67
2022/07/13 02:08:06;;;;;;;727.60;678.63;;;14.90;22.40;;;;;;5013082;28;20209;-67
2022/07/13 02:10:35;;;;;;;971.47;903.67;;;14.90;22.50;;;;;;5013637;28;20257;-66
2022/07/13 02:13:12;;;;;;;848.13;791.50;;;15.00;22.80;;;;;;5013308;28;20436;-68
2022/07/13 02:15:38;;;;;;;910.37;847.77;;;15.00;22.20;;;;;;5013636;28;20407;-67
2022/07/13 02:18:05;;;;;;;349.63;331.80;;;14.90;23.20;;;;;;5013072;28;21005;-66
2022/07/13 02:20:31;;;;;;;868.13;805.93;;;14.90;22.60;;;;;;5013431;28;20975;-67
2022/07/13 02:22:56;;;;;;;754.97;704.87;;;14.90;23.20;;;;;;5013155;28;20428;-68
2022/07/13 02:25:22;;;;;;;769.53;718.37;;;14.90;23.00;;;;;;5013001;28;20270;-66
2022/07/13 02:27:47;;;;;;;707.73;663.73;;;14.90;22.50;;;;;;5013097;28;20206;-68
2022/07/13 02:30:14;;;;;;;807.23;754.47;;;15.00;22.40;;;;;;5012904;28;20176;-68
2022/07/13 02:32:41;;;;;;;823.00;767.53;;;15.00;21.80;;;;;;5013019;28;20747;-66
2022/07/13 02:35:07;;;;;;;966.13;898.17;;;14.90;22.60;;;;;;5013063;28;20412;-68
2022/07/13 02:37:33;;;;;;;384.63;364.30;;;14.80;22.90;;;;;;5011418;28;20937;-68
2022/07/13 02:39:58;;;;;;;920.47;857.53;;;14.80;22.80;;;;;;5012534;28;20617;-67
2022/07/13 02:42:25;;;;;;;745.50;695.73;;;14.70;23.20;;;;;;5012670;28;20177;-67
2022/07/13 02:44:51;;;;;;;575.43;540.67;;;14.70;23.10;;;;;;5012721;28;20548;-66
2022/07/13 02:47:17;;;;;;;579.60;544.83;;;14.60;23.00;;;;;;5012743;28;20411;-66
2022/07/13 02:49:42;;;;;;;960.33;893.10;;;14.60;23.00;;;;;;5012553;28;20781;-66
2022/07/13 02:52:08;;;;;;;879.50;820.13;;;14.60;23.40;;;;;;5013145;28;20656;-67
2022/07/13 02:54:33;;;;;;;764.13;714.00;;;14.60;23.50;;;;;;5012870;28;20186;-66
2022/07/13 02:56:59;;;;;;;765.97;715.43;;;14.50;23.60;;;;;;5011569;28;20190;-66
2022/07/13 02:59:24;;;;;;;718.00;671.90;;;14.50;23.70;;;;;;5012164;28;20231;-67
2022/07/13 03:01:50;;;;;;;822.03;767.37;;;14.50;23.80;;;;;;5012876;28;20176;-66
2022/07/13 03:04:16;;;;;;;788.77;736.73;;;14.60;23.50;;;;;;5012414;28;20653;-67
2022/07/13 03:06:42;;;;;;;864.87;806.70;;;14.60;23.20;;;;;;5012571;28;20473;-66
2022/07/13 03:09:08;;;;;;;683.83;642.73;;;14.50;23.30;;;;;;5012149;28;20204;-67
2022/07/13 03:11:34;;;;;;;653.90;611.17;;;14.50;23.20;;;;;;5012540;28;20787;-66
2022/07/13 03:14:01;;;;;;;888.60;830.73;;;14.50;23.20;;;;;;5012300;28;20194;-66
2022/07/13 03:16:27;;;;;;;541.17;510.07;;;14.60;23.30;;;;;;5012521;28;20204;-66
2022/07/13 03:18:52;;;;;;;937.27;870.63;;;14.60;23.00;;;;;;5011842;28;20563;-67
2022/07/13 03:21:19;;;;;;;817.53;762.37;;;14.50;23.10;;;;;;5012547;28;20183;-67
2022/07/13 03:23:45;;;;;;;569.53;536.07;;;14.50;22.90;;;;;;5012126;28;20197;-66
2022/07/13 03:26:10;;;;;;;630.00;591.67;;;14.50;23.00;;;;;;5012237;28;20501;-67
2022/07/13 03:28:36;;;;;;;510.23;481.97;;;14.50;23.00;;;;;;5011700;28;20192;-67
2022/07/13 03:31:01;;;;;;;589.47;554.53;;;14.50;22.80;;;;;;5012228;28;20182;-66
2022/07/13 03:33:27;;;;;;;966.87;901.13;;;14.40;23.30;;;;;;5011194;28;20746;-67
2022/07/13 03:35:52;;;;;;;863.10;807.40;;;14.40;23.40;;;;;;5012317;28;20726;-66
2022/07/13 03:38:18;;;;;;;780.23;727.70;;;14.50;23.30;;;;;;5012418;28;20207;-66
2022/07/13 03:40:43;;;;;;;559.17;525.27;;;14.40;23.20;;;;;;5012231;28;20208;-66
2022/07/13 03:43:09;;;;;;;457.73;432.97;;;14.40;23.00;;;;;;5011930;28;20840;-66
2022/07/13 03:45:35;;;;;;;902.67;840.27;;;14.30;23.10;;;;;;5012008;28;20184;-66
2022/07/13 03:48:00;;;;;;;721.67;675.53;;;14.40;23.40;;;;;;5010584;28;20292;-66
2022/07/13 03:50:26;;;;;;;961.33;895.90;;;14.40;23.10;;;;;;5012247;28;20227;-66
2022/07/13 03:52:51;;;;;;;450.23;426.07;;;14.30;23.30;;;;;;5011947;28;20231;-66
2022/07/13 03:55:18;;;;;;;693.47;648.10;;;14.30;23.20;;;;;;5011960;28;20318;-66
2022/07/13 03:57:43;;;;;;;721.57;676.63;;;14.30;23.40;;;;;;5011788;28;20617;-66
2022/07/13 04:00:09;;;;;;;553.60;520.23;;;14.30;23.20;;;;;;5014900;28;20556;-66
2022/07/13 04:02:35;;;;;;;802.97;750.07;;;14.30;23.00;;;;;;5015605;28;20176;-66
2022/07/13 04:05:01;;;;;;;587.13;553.67;;;14.30;23.00;;;;;;5015911;28;20947;-66
2022/07/13 04:07:27;;;;;;;388.17;368.43;;;14.50;22.40;;;;;;5015732;28;20421;-66
2022/07/13 04:09:52;;;;;;;346.43;330.33;;;14.40;22.30;;;;;;5014270;28;20553;-66
2022/07/13 04:12:21;;;;;;;799.17;748.23;;;14.10;23.70;;;;;;5015592;28;20192;-66
2022/07/13 04:14:50;;;;;;;562.57;529.77;;;14.10;24.40;;;;;;5016017;28;20213;-66
2022/07/13 04:17:16;;;;;;;515.13;483.67;;;14.20;24.40;;;;;;5014392;28;20434;-66
2022/07/13 04:19:42;;;;;;;711.20;668.27;;;14.20;24.40;;;;;;5015367;28;20458;-66
2022/07/13 04:22:07;;;;;;;609.53;572.67;;;14.30;24.40;;;;;;5015796;28;20181;-66
2022/07/13 04:24:33;;;;;;;786.33;734.07;;;14.40;24.50;;;;;;5015651;28;20174;-66
2022/07/13 04:26:58;;;;;;;845.70;788.57;;;14.50;24.30;;;;;;5015614;28;20195;-66
2022/07/13 04:29:24;;;;;;;365.63;348.97;;;14.60;24.20;;;;;;5015076;28;20254;-66
2022/07/13 04:31:50;;;;;;;417.87;397.53;;;14.40;24.60;;;;;;5015580;28;20267;-65
2022/07/13 04:34:16;;;;;;;419.97;399.40;;;13.90;27.00;;;;;;5015399;28;20190;-67
2022/07/13 04:36:43;;;;;;;632.20;597.20;;;13.80;27.90;;;;;;5015843;28;20414;-67
2022/07/13 04:39:09;;;;;;;618.67;582.97;;;13.80;28.10;;;;;;5015002;28;20548;-67
2022/07/13 04:41:34;;;;;;;402.67;384.27;;;14.00;27.20;;;;;;5014987;28;20924;-67
2022/07/13 04:44:00;;;;;;;380.83;364.13;;;13.90;26.80;;;;;;5015248;28;20467;-67
2022/07/13 04:46:26;;;;;;;971.70;900.47;;;14.00;27.30;;;;;;5015090;28;20263;-68
2022/07/13 04:48:51;;;;;;;950.17;881.97;;;14.00;27.40;;;;;;5014829;28;20197;-67
2022/07/13 04:51:17;;;;;;;884.13;819.63;;;14.30;26.70;;;;;;5007410;28;20177;-66
2022/07/13 04:53:42;;;;;;;900.13;834.63;;;14.40;25.60;;;;;;4995929;28;20197;-68
2022/07/13 04:56:08;;;;;;;662.37;619.57;;;14.50;25.70;;;;;;5013860;28;20180;-67
2022/07/13 04:58:33;;;;;;;992.37;922.33;;;14.60;25.80;;;;;;5015057;28;20210;-67
2022/07/13 05:01:00;;;;;;;785.80;731.47;;;14.70;25.80;;;;;;5015282;28;20209;-67
2022/07/13 05:03:27;;;;;;;425.10;401.70;;;15.30;26.20;;;;;;5015074;28;20175;-66
2022/07/13 05:05:52;;;;;;;776.77;724.57;;;18.30;18.50;;;;;;5013554;28;20430;-67
2022/07/13 05:08:18;;;;;;;919.83;853.97;;;19.30;14.60;;;;;;5011336;28;20443;-66
2022/07/13 05:10:45;;;;;;;1047.53;968.60;;;;;;;;;;4997954;28;20544;-68
2022/07/13 05:13:10;;;;;;;788.70;737.40;;;21.30;11.10;;;;;;5015060;28;20570;-68
2022/07/13 05:15:36;;;;;;;1020.23;940.67;;;22.40;9.40;;;;;;5014979;28;20522;-68
2022/07/13 05:18:02;;;;;;;730.77;682.23;;;23.10;7.70;;;;;;5014708;28;20740;-68
2022/07/13 05:20:28;;;;;;;571.67;539.97;;;;;;;;;;5014736;28;20200;-67
2022/07/13 05:22:53;;;;;;;628.60;590.80;;;22.90;4.50;;;;;;5014800;28;20183;-67
2022/07/13 05:25:20;;;;;;;591.33;558.10;;;23.50;5.10;;;;;;5014409;28;20462;-67
2022/07/13 05:27:46;;;;;;;720.73;671.70;;;23.40;5.80;;;;;;5014946;28;20730;-68
2022/07/13 05:30:12;;;;;;;768.67;712.07;;;25.10;4.30;;;;;;5014852;28;20493;-68
2022/07/13 05:32:37;;;;;;;802.33;737.60;;;25.60;2.80;;;;;;5014929;28;20241;-67
2022/07/13 05:35:03;;;;;;;846.20;775.13;;;;;;;;;;5015266;28;20242;-67
2022/07/13 05:37:29;;;;;;;641.07;602.77;;;24.70;1.00;;;;;;5015007;28;20226;-67
2022/07/13 05:39:54;;;;;;;738.33;684.63;;;24.50;3.10;;;;;;5014970;28;20466;-68
2022/07/13 05:42:20;;;;;;;824.07;757.33;;;24.50;5.40;;;;;;5014661;28;20238;-68
2022/07/13 05:44:45;;;;;;;798.00;735.53;;;26.60;2.50;;;;;;5011561;28;20189;-68
2022/07/13 05:47:12;;;;;;;875.30;801.27;;;27.80;1.00;;;;;;4994641;28;20180;-67
2022/07/13 05:49:38;;;;;;;1032.47;930.57;;;27.80;1.00;;;;;;5000333;28;20542;-67
2022/07/13 05:52:03;;;;;;;828.43;758.77;;;27.50;1.00;;;;;;5014378;28;20419;-67
2022/07/13 05:54:30;;;;;;;746.50;691.97;;;25.30;1.10;;;;;;5014095;28;20188;-68
2022/07/13 05:56:56;;;;;;;794.97;734.57;;;25.70;1.10;;;;;;5014310;28;20226;-69
2022/07/13 05:59:22;;;;;;;971.23;880.23;;;;;;;;;;5013702;28;20466;-68
2022/07/13 06:01:48;;;;;;;858.03;788.73;;;26.00;1.00;;;;;;5013740;28;20176;-68
2022/07/13 06:04:14;;;;;;;823.13;761.00;;;26.40;1.00;;;;;;5013997;28;20564;-68
2022/07/13 06:06:39;;;;;;;912.10;839.50;;;28.10;1.00;;;;;;5013915;28;20649;-68
2022/07/13 06:09:05;;;;;;;856.23;789.40;;;29.70;1.00;;;;;;5012241;28;20207;-68
2022/07/13 06:11:30;;;;;;;851.50;781.87;;;30.90;1.00;;;;;;5014736;28;20183;-68
2022/07/13 06:13:56;;;;;;;885.90;815.73;;;31.70;1.00;;;;;;5009995;28;20188;-64
2022/07/13 06:16:22;;;;;;;944.87;858.17;;;;;;;;;;5010541;28;20184;-65
2022/07/13 06:18:48;;;;;;;967.23;872.70;;;33.30;1.00;;;;;;5008551;28;20188;-65
2022/07/13 06:21:13;;;;;;;974.83;884.57;;;34.20;1.00;;;;;;5009447;28;20998;-65
2022/07/13 06:23:39;;;;;;;841.17;767.43;;;34.70;1.00;;;;;;5009844;28;20188;-66
2022/07/13 06:26:04;;;;;;;898.10;826.40;;;35.10;1.00;;;;;;5009363;28;20185;-65
2022/07/13 06:28:30;;;;;;;983.33;889.90;;;35.30;1.00;;;;;;5009494;28;20212;-65
2022/07/13 06:30:55;;;;;;;935.47;853.77;;;35.80;1.00;;;;;;5008097;28;20192;-66
2022/07/13 06:33:21;;;;;;;877.57;801.10;;;36.30;1.00;;;;;;5008300;28;20183;-67
2022/07/13 06:35:47;;;;;;;833.70;764.27;;;36.90;1.00;;;;;;5010087;28;20184;-66
2022/07/13 06:38:12;;;;;;;879.00;806.83;;;37.00;1.00;;;;;;5008943;28;20707;-67
2022/07/13 06:40:38;;;;;;;996.87;901.03;;;36.90;1.00;;;;;;5009122;28;20210;-66
2022/07/13 06:43:04;;;;;;;969.70;875.43;;;37.50;1.00;;;;;;5012575;28;20179;-66
2022/07/13 06:45:29;;;;;;;1059.23;946.30;;;37.90;1.00;;;;;;5008671;28;20187;-65
2022/07/13 06:47:55;;;;;;;968.93;878.57;;;38.30;1.00;;;;;;5009207;28;20544;-66
2022/07/13 06:50:21;;;;;;;950.57;861.90;;;38.80;1.00;;;;;;5013508;28;20263;-67
2022/07/13 06:52:47;;;;;;;950.47;865.47;;;38.40;1.00;;;;;;5013265;28;20182;-66
2022/07/13 06:55:14;;;;;;;958.93;868.87;;;37.50;1.00;;;;;;5013360;28;20419;-66
2022/07/13 06:57:39;;;;;;;991.23;901.20;;;36.90;1.00;;;;;;5013001;28;20947;-67
2022/07/13 07:00:06;;;;;;;909.83;836.63;;;36.30;1.00;;;;;;5012921;28;20458;-67
2022/07/13 07:02:32;;;;;;;913.60;833.23;;;35.60;1.00;;;;;;5012886;28;20179;-67
2022/07/13 07:04:58;;;;;;;934.50;847.80;;;34.30;1.00;;;;;;5012873;28;20494;-67
2022/07/13 07:07:23;;;;;;;932.33;851.10;;;31.50;1.00;;;;;;5012296;28;20190;-66
2022/07/13 07:09:49;;;;;;;899.33;826.00;;;31.50;1.00;;;;;;5012802;28;20184;-65
2022/07/13 07:12:16;;;;;;;885.63;809.90;;;31.40;1.00;;;;;;5012851;28;20246;-66
2022/07/13 07:14:41;;;;;;;871.20;796.97;;;31.80;1.00;;;;;;5012865;28;20422;-65
2022/07/13 07:17:07;;;;;;;943.20;856.43;;;31.70;1.00;;;;;;5012479;28;20422;-65
2022/07/13 07:19:33;;;;;;;840.13;775.40;;;32.00;1.00;;;;;;5011363;28;20295;-67
2022/07/13 07:21:58;;;;;;;964.43;875.17;;;32.50;1.00;;;;;;5011217;28;20445;-69
2022/07/13 07:24:24;;;;;;;919.77;841.33;;;33.00;1.00;;;;;;5010320;28;20250;-67
2022/07/13 07:26:51;;;;;;;889.27;818.37;;;33.90;1.00;;;;;;5010806;28;20518;-67
2022/07/13 07:29:16;;;;;;;945.77;860.93;;;34.90;1.00;;;;;;5010041;28;20294;-67
2022/07/13 07:31:42;;;;;;;937.77;858.57;;;35.20;1.00;;;;;;5010521;28;20502;-67
2022/07/13 07:34:08;;;;;;;1048.67;939.47;;;35.60;1.00;;;;;;5009965;28;20180;-67
2022/07/13 07:36:33;;;;;;;1042.80;938.07;;;36.10;1.00;;;;;;5012360;28;20186;-67
2022/07/13 07:38:59;;;;;;;1006.23;908.67;;;36.60;1.00;;;;;;5011692;28;20224;-67
2022/07/13 07:41:24;;;;;;;1017.37;923.70;;;36.90;1.00;;;;;;5011007;28;20176;-67
2022/07/13 07:43:50;;;;;;;1051.40;942.60;;;37.50;1.00;;;;;;5013071;28;20175;-72
2022/07/13 07:46:15;;;;;;;988.97;898.70;;;37.90;1.00;;;;;;5013747;28;20180;-71
2022/07/13 07:48:41;;;;;;;1003.53;904.77;;;38.10;1.00;;;;;;5012514;28;20256;-71
2022/07/13 07:51:07;;;;;;;1074.50;964.93;;;38.30;1.00;;;;;;5013590;28;20191;-71
2022/07/13 07:53:32;;;;;;;1029.10;929.53;;;38.70;1.00;;;;;;5014504;28;20559;-71
2022/07/13 07:55:58;;;;;;;927.93;848.57;;;;;;;;;;5013756;28;20175;-71
2022/07/13 07:58:24;;;;;;;1032.27;929.33;;;36.40;1.00;;;;;;5012233;28;20200;-71
2022/07/13 08:00:50;;;;;;;962.60;881.07;;;37.00;1.00;;;;;;5013097;28;20567;-71
2022/07/13 08:03:15;;;;;;;1090.37;974.97;;;37.20;1.00;;;;;;5013357;28;20175;-71
2022/07/13 08:05:44;;;;;;;1053.30;950.83;;;34.80;1.00;;;;;;5012075;28;20207;-71
2022/07/13 08:08:10;;;;;;;991.03;900.17;;;35.30;1.00;;;;;;5011803;28;20568;-70
2022/07/13 08:10:36;;;;;;;851.07;780.83;;;35.50;1.00;;;;;;5012305;28;20418;-70
2022/07/13 08:13:03;;;;;;;935.80;851.37;;;34.30;1.00;;;;;;5012568;28;20187;-70
2022/07/13 08:15:30;;;;;;;832.10;767.53;;;31.80;1.00;;;;;;5012524;28;20191;-70
2022/07/13 08:17:58;;;;;;;835.30;768.23;;;;;;;;;;5011337;28;20458;-70
2022/07/13 08:20:24;;;;;;;1161.57;999.90;;;32.60;1.00;;;;;;4999880;28;20467;-71
2022/07/13 08:22:50;;;;;;;917.77;836.77;;;32.90;1.00;;;;;;4992179;28;20435;-70
2022/07/13 08:25:17;;;;;;;915.33;835.50;;;31.90;1.00;;;;;;4992326;28;20651;-70
2022/07/13 08:27:43;;;;;;;936.37;853.63;;;32.40;1.00;;;;;;4992054;28;20542;-71
2022/07/13 08:30:10;;;;;;;896.90;822.40;;;32.60;1.00;;;;;;5000288;28;20436;-71
2022/07/13 08:32:36;;;;;;;860.07;789.37;;;33.00;1.00;;;;;;5006460;28;20440;-71
2022/07/13 08:40:40;;;;;;;911.83;833.57;;;33.80;1.00;;;;;;5009502;28;20472;-71
2022/07/13 08:43:05;;;;;;;956.20;872.13;;;34.40;1.00;;;;;;5011190;28;20434;-71
2022/07/13 08:45:32;;;;;;;994.97;900.40;;;34.80;1.00;;;;;;5012461;28;20488;-71
2022/07/13 08:47:59;;;;;;;923.63;842.23;;;35.20;1.00;;;;;;5009484;28;20207;-71
2022/07/13 08:50:27;;;;;;;938.40;852.93;;;34.80;1.00;;;;;;4999492;28;20793;-71
2022/07/13 08:52:55;;;;;;;952.07;860.77;;;33.40;1.00;;;;;;5013885;28;20492;-71
2022/07/13 08:55:21;;;;;;;1021.33;921.50;;;34.00;1.00;;;;;;5015774;28;20449;-71
2022/07/13 08:57:46;;;;;;;950.33;858.67;;;34.30;1.00;;;;;;5016229;28;20435;-71
2022/07/13 09:00:12;;;;;;;923.07;845.03;;;33.20;1.00;;;;;;5014464;28;20462;-70
2022/07/13 09:02:38;;;;;;;929.03;843.37;;;32.10;5.80;;;;;;5014979;28;20215;-71
2022/07/13 09:05:06;;;;;;;915.20;835.17;;;;;;;;;;5015215;28;20168;-71
2022/07/13 09:07:35;;;;;;;1019.97;922.93;;;30.20;1.00;;;;;;5015462;28;20508;-71
2022/07/13 09:10:03;;;;;;;824.50;758.40;;;30.60;1.00;;;;;;5013494;28;20453;-71
2022/07/13 09:12:29;;;;;;;841.90;774.33;;;;;;;;;;5013043;28;20438;-71
2022/07/13 09:14:56;;;;;;;756.93;699.30;;;;;;;;;;5014911;28;20974;-71
2022/07/13 09:17:33;;;;;;;848.60;775.37;;;29.50;1.00;;;;;;5014237;28;20427;-71
2022/07/13 09:20:03;;;;;;;991.07;895.70;;;29.80;1.00;;;;;;5012908;28;20473;-71
2022/07/13 09:22:29;;;;;;;922.13;839.60;;;30.10;1.00;;;;;;5014601;28;20411;-71
2022/07/13 09:24:55;;;;;;;831.50;764.70;;;30.10;1.00;;;;;;5004930;28;20423;-69
2022/07/13 09:27:21;;;;;;;1035.00;933.43;;;29.60;1.00;;;;;;4999651;28;20181;-69
2022/07/13 09:29:47;;;;;;;1091.83;980.13;;;29.70;1.00;;;;;;5014171;28;20180;-69
2022/07/13 09:32:13;;;;;;;836.73;768.50;;;30.60;1.00;;;;;;5014212;28;20477;-68
2022/07/13 09:34:58;;;;;;;950.03;864.10;;;30.20;1.00;;;;;;5013050;28;20271;-69
2022/07/13 09:37:27;;;;;;;983.63;884.00;;;31.10;1.00;;;;;;5013812;28;20425;-68
2022/07/13 09:40:05;;;;;;;873.67;796.53;;;30.80;1.00;;;;;;5028109;23;20498;-70
2022/07/13 09:42:33;;;;;;;816.97;749.93;;;;;;;;;;5015060;28;20576;-69
2022/07/13 09:48:01;;;;;;;780.73;721.10;;;29.70;1.00;;;;;;5013515;28;20578;-70
2022/07/13 09:50:40;;;;;;;818.60;749.97;;;29.20;1.00;;;;;;5013223;28;20519;-69
2022/07/13 09:53:26;;;;;;;959.53;876.07;;;28.50;1.00;;;;;;5014355;28;20172;-69
2022/07/13 09:55:52;;;;;;;863.47;794.70;;;28.40;1.00;;;;;;5013620;28;20944;-70
2022/07/13 09:58:27;;;;;;;974.27;882.73;;;28.30;1.00;;;;;;5012958;28;20442;-69
2022/07/13 10:00:55;;;;;;;987.47;895.83;;;28.30;1.00;;;;;;5013571;28;20454;-70
2022/07/13 10:03:21;;;;;;;857.40;787.17;;;28.30;1.00;;;;;;5013534;28;20450;-69
2022/07/13 10:05:47;;;;;;;850.80;781.30;;;28.30;1.00;;;;;;5013789;28;20407;-69
2022/07/13 10:08:16;;;;;;;1007.73;917.63;;;28.10;1.00;;;;;;5013325;28;20442;-69
2022/07/13 10:10:42;;;;;;;979.63;890.43;;;28.10;1.00;;;;;;5013696;28;20428;-69
2022/07/13 10:13:08;;;;;;;851.23;785.67;;;28.10;1.00;;;;;;5013487;28;20439;-69
2022/07/13 10:15:34;;;;;;;913.50;836.07;;;28.00;1.00;;;;;;5013525;28;20741;-69
2022/07/13 10:18:01;;;;;;;953.43;872.10;;;27.90;1.00;;;;;;5011764;28;20183;-68
2022/07/13 10:20:28;;;;;;;951.30;866.10;;;28.30;1.00;;;;;;5013417;28;20773;-69
2022/07/13 10:22:54;;;;;;;819.90;757.87;;;28.70;1.00;;;;;;5014024;28;20419;-69
2022/07/13 10:25:23;;;;;;;812.20;751.20;;;28.90;1.00;;;;;;5013027;28;20832;-69
2022/07/13 10:28:18;;;;;;;907.37;826.87;;;29.00;1.00;;;;;;5013125;28;20172;-67
2022/07/13 10:30:44;;;;;;;921.07;840.30;;;29.20;1.00;;;;;;5011821;28;20485;-67
2022/07/13 10:33:17;;;;;;;776.13;717.43;;;29.30;1.00;;;;;;5011186;28;20439;-68
2022/07/13 10:35:51;;;;;;;759.43;704.73;;;29.10;1.00;;;;;;5013138;28;20175;-67
2022/07/13 10:38:22;;;;;;;818.63;752.67;;;28.80;1.00;;;;;;5012556;28;20510;-68
2022/07/13 10:40:48;;;;;;;777.93;720.80;;;28.60;1.00;;;;;;5013087;28;20447;-68
2022/07/13 10:43:15;;;;;;;794.00;735.20;;;28.60;1.00;;;;;;5012721;28;20480;-68
2022/07/13 10:45:48;;;;;;;913.83;838.33;;;28.50;1.00;;;;;;5012951;28;20638;-67
2022/07/13 10:48:18;;;;;;;928.33;848.07;;;28.30;1.00;;;;;;5012903;28;20434;-68
2022/07/13 10:50:49;;;;;;;862.10;794.17;;;28.30;1.00;;;;;;5013360;28;20415;-68
2022/07/13 10:53:18;;;;;;;933.33;850.57;;;28.30;1.00;;;;;;5012725;28;20557;-68
2022/07/13 10:55:59;;;;;;;776.87;720.20;;;28.30;1.00;;;;;;4995397;28;20841;-67
2022/07/13 10:58:31;;;;;;;827.63;764.13;;;28.30;1.00;;;;;;4992736;28;20427;-68
2022/07/13 11:01:01;;;;;;;837.23;769.97;;;28.30;1.00;;;;;;4993060;28;21012;-68
2022/07/13 11:03:35;;;;;;;789.40;731.30;;;28.30;1.00;;;;;;4999001;28;20429;-67
2022/07/13 11:06:12;;;;;;;841.47;777.47;;;28.20;1.00;;;;;;5012898;28;20410;-67
2022/07/13 11:08:39;;;;;;;1020.53;923.07;;;28.20;1.00;;;;;;5012008;28;20450;-68
2022/07/13 11:11:15;;;;;;;766.20;711.57;;;28.10;1.00;;;;;;5011339;28;20469;-68
2022/07/13 11:13:44;;;;;;;958.87;872.87;;;28.20;1.00;;;;;;5006616;28;20446;-68
2022/07/13 11:16:10;;;;;;;920.73;841.67;;;28.20;1.00;;;;;;5012591;28;20439;-68
2022/07/13 11:18:37;;;;;;;819.13;758.50;;;28.20;1.00;;;;;;5012054;28;20475;-67
2022/07/13 11:21:04;;;;;;;892.67;820.93;;;28.20;1.00;;;;;;5012294;28;20470;-67
2022/07/13 11:26:59;;;;;;;888.60;816.13;;;28.30;1.00;;;;;;5012473;28;20935;-67
2022/07/13 11:29:43;;;;;;;998.07;905.47;;;28.50;1.00;;;;;;5011934;28;20446;-67
2022/07/13 11:32:09;;;;;;;1004.40;914.97;;;28.50;1.00;;;;;;5012418;28;20844;-67
2022/07/13 11:34:36;;;;;;;978.97;888.63;;;28.60;1.00;;;;;;5012182;28;20931;-67
2022/07/13 11:37:02;;;;;;;863.37;795.23;;;28.60;1.00;;;;;;5012171;28;20419;-67
2022/07/13 11:39:30;;;;;;;894.23;818.33;;;28.70;1.00;;;;;;5011714;28;20878;-67
2022/07/13 11:41:57;;;;;;;930.70;850.77;;;;;;;;;;5012176;28;20407;-67
2022/07/13 11:44:29;;;;;;;803.63;738.80;;;29.00;1.00;;;;;;5012054;28;20931;-67
2022/07/13 11:46:56;;;;;;;991.80;905.13;;;29.10;1.00;;;;;;5012286;28;20481;-67
2022/07/13 11:49:22;;;;;;;1019.20;923.33;;;29.10;1.00;;;;;;5005288;28;20524;-67
2022/07/13 11:51:48;;;;;;;1035.23;938.37;;;29.10;1.00;;;;;;4994097;28;20414;-67
2022/07/13 11:54:16;;;;;;;1074.00;969.37;;;29.20;1.00;;;;;;5012282;28;20498;-68
2022/07/13 11:56:56;;;;;;;746.43;691.50;;;29.30;1.00;;;;;;5012325;28;20425;-67
2022/07/13 11:59:39;;;;;;;959.37;873.13;;;29.10;1.00;;;;;;5011725;28;20494;-67
2022/07/13 12:02:12;;;;;;;1077.17;968.13;;;29.20;1.00;;;;;;5008429;28;20480;-67
2022/07/13 12:04:42;;;;;;;835.10;764.50;;;29.30;1.00;;;;;;5004718;28;20751;-66
2022/07/13 12:07:13;;;;;;;1034.47;940.10;;;29.30;1.00;;;;;;5012021;28;20411;-65
2022/07/13 12:10:01;;;;;;;925.23;841.57;;;29.30;1.00;;;;;;4992202;28;20432;-66
2022/07/13 12:12:29;;;;;;;900.10;824.63;;;29.40;1.00;;;;;;4998485;28;20787;-65
2022/07/13 12:14:56;;;;;;;773.93;713.83;;;29.40;1.00;;;;;;5011943;28;20795;-66
2022/07/13 12:17:23;;;;;;;846.07;778.47;;;29.30;1.00;;;;;;5012201;28;20407;-66
2022/07/13 12:19:50;;;;;;;968.57;880.97;;;29.30;1.00;;;;;;5012525;28;20823;-67
2022/07/13 12:22:21;;;;;;;881.67;807.33;;;29.40;1.00;;;;;;5015638;28;20418;-67
2022/07/13 12:24:47;;;;;;;871.30;794.33;;;29.50;1.00;;;;;;5015802;28;20768;-67
2022/07/13 12:27:39;;;;;;;939.20;855.17;;;29.80;1.00;;;;;;5015768;28;20418;-66